Virginia Peak (RGX), Nevada Weather observations

 Day   Time    Ave.   Ave.  Ave.  Vector  Max.   Total    Solar  
  of    of     Air    Rel.  Wind   Wind   Wind  Precip.   Rad.   
Year   Day     Temp.  Hum.  Speed  Dir.   Gust                   
2015   (PST)    F      %     mph   deg.    mph    in.     W/m2  
----------------------------------------------------------------
  64   15:15   42.0    32    6.0   248    12.0   999.00     999
  64   15:30   42.0    32    7.2   256     9.6   999.00     999
  64   15:45   42.0    29    8.4   221    10.2   999.00     999
  64   16:00   42.0    29    7.8   227     9.6   999.00     999
  64   16:15   42.0    24    7.8   247    10.2   999.00     999
  64   16:30   41.0    28    7.2   233    10.8   999.00     999
  64   16:45   41.0    33    7.8   266    11.4   999.00     999
  64   17:00   40.0    32    7.8   268    10.8   999.00     999
  64   17:15   40.0    35    5.4   270     9.6   999.00     999
  64   17:30   39.0    36    4.2   286     7.8   999.00     999
  64   17:45   38.0    29    4.8   299     6.0   999.00     999
  64   18:00   37.0    21    7.8   311     7.8   999.00     999
  64   18:15   37.0    18    7.2   311     8.4   999.00     999
  64   18:30   37.0    22    7.8   313     8.4   999.00     999
  64   18:45   37.0    23    7.2   319     8.4   999.00     999
  64   19:00   37.0    20    7.8   310     7.8   999.00     999
  64   19:15   37.0    24    7.8   308     7.8   999.00     999
  64   19:30   37.0    24    7.2   321     8.4   999.00     999
  64   19:45   37.0    22    7.8   318     8.4   999.00     999
  64   20:00   37.0    25    7.8   313     8.4   999.00     999
  64   20:15   37.0    25    9.0   306     9.6   999.00     999
  64   20:30   37.0    24    7.2   313     9.6   999.00     999
  64   20:45   37.0    24    4.8   336     7.2   999.00     999
  64   21:00   37.0    29    6.6   325     6.6   999.00     999
  64   21:15   37.0    31    6.0   323     6.6   999.00     999
  64   21:30   37.0    32    7.2   311     7.8   999.00     999
  64   21:45   37.0    31    6.6   303     7.8   999.00     999
  64   22:00   37.0    31    7.2   298     7.8   999.00     999
  64   22:15   37.0    31    4.8   307     7.2   999.00     999
  64   22:30   37.0    31    4.2   327     4.8   999.00     999
  64   22:45   36.0    32    4.8   308     4.8   999.00     999
  64   23:00   36.0    31    4.8   313     5.4   999.00     999
  64   23:15   36.0    31    4.8   301     5.4   999.00     999
  64   23:30   36.0    31    5.4   295     5.4   999.00     999
  64   23:45   36.0    29    3.0   291     5.4   999.00     999
  65    0:00   35.0    28    1.8   297     3.6   999.00     999
  65    0:15   35.0    26    1.8   289     3.0   999.00     999
  65    0:30   35.0    26    1.8   306     2.4   999.00     999
  65    0:45   35.0    27    3.6   301     3.6   999.00     999
  65    1:00   36.0    27    2.4   325     3.6   999.00     999
  65    1:15   35.0    26    1.8   320     3.6   999.00     999
  65    1:30   35.0    26    3.0   321     3.6   999.00     999
  65    1:45   35.0    25    0.6    22     3.0   999.00     999
  65    2:00   35.0    24    4.2    59     4.2   999.00     999
  65    2:15   36.0    24    6.0    70     6.6   999.00     999
  65    2:30   36.0    23    6.6    70     7.2   999.00     999
  65    2:45   36.0    23    7.8    73     7.8   999.00     999
  65    3:00   36.0    23    6.6    70     7.8   999.00     999
  65    3:15   36.0    22    6.6    64     7.2   999.00     999
  65    3:30   35.0    23    6.0    59     7.2   999.00     999
  65    3:45   35.0    22    6.0    58     6.6   999.00     999
  65    4:00   35.0    20    6.6    46     7.8   999.00     999
  65    4:15   35.0    20    2.8    46     6.6   999.00     999
  65    4:30   35.0    19    7.2    49     7.8   999.00     999
  65    4:45   35.0    22    5.4    43     7.2   999.00     999
  65    5:00   35.0    21    4.8    46     6.0   999.00     999
  65    5:15   35.0    21    6.0    54     6.0   999.00     999
  65    5:30   35.0    19    5.4    48     6.6   999.00     999
  65    5:45   35.0    19    7.2    63     7.2   999.00     999
  65    6:00   35.0    18    8.4    59     9.0   999.00     999
  65    6:15   35.0    18    9.6    51     9.6   999.00     999
  65    6:30   34.0    17    8.4    44     9.6   999.00     999
  65    6:45   35.0    16    7.8    42     9.6   999.00     999
  65    7:00   35.0    18    7.8    51     8.4   999.00     999
  65    7:15   35.0    18    9.6    45    10.8   999.00     999
  65    7:30   36.0    19   10.8    53    12.0   999.00     999
  65    7:45   36.0    19   11.4    53    13.8   999.00     999
  65    8:00   36.0    19   11.4   999    15.0   999.00     999
  65    8:15   37.0    17   13.2    71    13.8   999.00     999
  65    8:30   37.0    21   12.0    72   999.0   999.00     999
  65    8:45   37.0    20   12.6    69    15.0   999.00     999
  65    9:00   38.0    18  999.0   999    15.0   999.00     999
  65    9:15   38.0    20   16.2    82    16.2   999.00     999
  65    9:30   38.0    22   15.0    73    18.0   999.00     999
  65    9:45   38.0    21   15.6    82    19.2   999.00     999
  65   10:00   38.0    19   16.8    89    19.2   999.00     999
  65   10:15  999.0   999  999.0   999   999.0   999.00     999
  65   10:30   38.0    25   17.4    66    19.8   999.00     999
  65   10:45   38.0    28   16.8    75    19.8   999.00     999
  65   11:00   38.0    28   17.4    82    19.2   999.00     999
  65   11:15   38.0    28   16.2    89    18.6   999.00     999
  65   11:30   38.0    34   16.8   999    19.8   999.00     999
  65   11:45   38.0    20   18.6    93    22.2   999.00     999
  65   12:00   39.0    29   16.2   100    21.6   999.00     999
  65   12:15   39.0    24   16.8    90    21.0   999.00     999
  65   12:30   39.0    21   14.4    74    18.6   999.00     999
  65   12:45   39.0    19  999.0   999    19.2   999.00     999
  65   13:00   39.0    21   16.8    82    18.6   999.00     999
  65   13:15   39.0    19   15.0    69    19.2   999.00     999
  65   13:30   40.0    23   15.0    84    19.2   999.00     999
  65   13:45   40.0    24   18.6    88    20.4   999.00     999
  65   14:00   40.0    22   16.2    89    19.2   999.00     999
  65   14:15   40.0    21   16.2    87    19.8   999.00     999
  65   14:30   40.0    20   15.6    81    18.0   999.00     999
  65   14:45   40.0    20   20.4    86    21.0   999.00     999
  65   15:00   40.0    21   18.0    69    21.6   999.00     999

Return to Virginia Peak (RGX) graphs page.


Western Regional Climate Center,wrcc@dri.edu